Overview Statistics Trail Chart Weather Telemetry Raw packets
 

This is the latest recevied weather packets stored in our database for station/object IW1RCO-13. If no packets are shown the sender has not sent any weather packets the latest 10 day(s).

<< 49 50 51 52 53 54 55 >>
Time Temp. Humidity Pressure Rain* Wind** Luminosity Snow
1788270266 27.78° C 66% 1016.9 hPa - - - -
1788269969 27.78° C 67% 1017.4 hPa - - - -
1788269666 28.33° C 67% 1017.7 hPa - - - -
1788269369 26.67° C 71% 1017.9 hPa - - - -
1788269072 26.67° C 72% 1017.6 hPa - - - -
1788268769 26.11° C 75% 1016.8 hPa - - - -
1788268472 25.56° C 75% 1017.1 hPa - - - -
1788268168 25.56° C 76% 1018.3 hPa - - - -
1788267872 25.56° C 74% 1016.6 hPa - - - -
1788267568 26.67° C 71% 1017 hPa - - - -
1788266968 28.33° C 67% 1017.8 hPa - - - -
1788266671 27.78° C 68% 1018 hPa - - - -
1788266368 28.33° C 68% 1017.8 hPa - - - -
1788266071 28.33° C 66% 1017.2 hPa - - - -
1788265768 27.78° C 67% 1016.8 hPa - - - -
1788265471 27.78° C 67% 1017.3 hPa - - - -
1788265167 26.67° C 69% 1017.1 hPa - - - -
1788264870 27.78° C 67% 1017.4 hPa - - - -
1788264567 27.78° C 68% 1016.8 hPa - - - -
1788264270 28.33° C 65% 1016.5 hPa - - - -
1788263967 28.33° C 67% 1016.7 hPa - - - -
1788263670 28.33° C 65% 1018.2 hPa - - - -
1788263366 27.22° C 69% 1017 hPa - - - -
1788263070 26.67° C 69% 1017.2 hPa - - - -
1788262767 27.22° C 68% 1017.6 hPa - - - -

* Rain since midnight (hover to see other rain measurements)
** Current wind speed in m/s (hover to see current wind gust speed)